Terminal Aerodrome Forecast
Issued by NWS Brownsville, TX

Home | Current Version | Previous Version | Text Only | Print | Product List | Glossary On
Versions: 1 2 3 4 5 6 7 8 9 10 11 12 13 14 15 16 17 18 19 20 21 22
000
FTUS44 KBRO 221700
TAFMFE
TAF
KMFE 221731Z 2218/2318 22004KT P6SM BKN009
     FM221845 20012G18KT P6SM FEW025 SCT250
     FM230500 16005KT 6SM BR BKN009
     FM230800 18003KT 3SM BR OVC003
     FM231400 28010KT P6SM OVC007
     FM231700 33025G30KT P6SM FEW025=

USA.gov is the U.S. government's official web portal to all federal, state and local government web resources and services.